Manalapan, Florida
Current Conditions -  °F | °C
As of 1:53 AM on Thursday 23 Oct 2014 (Local Time) from KPBI Reporting Station
Broken Clouds Broken Clouds  
Wind Chill: 77°   Ceiling: 3400
Heat Index: 79°   Visibility: 10mi
Dew Point: 69°   Wind: 6mph
Humidity: 76%   Direction: 360°N
Pressure: 29.9"   Gusts: NA
Location:  26.5758°N, 80.0835°W
Report Text: KPBI 230553Z 36005KT 10SM BKN034 BKN046 BKN220 25/21 A2990 RMK AO2 SLP124 60000 T02500206 10261 20244 56012 $
Loading
Personal Weather Stations






























Interactive Weather Map
Tropical Storm Tracking
New forecast layout! Learn more

10-Day Weather Forecast

Advertisements
Track Severe Weather on mobile